Latest Weather Observations for Cape Borda

IDS60801

Issued at 8:05 pm CST Monday 21 April 2014 (issued every 30 minutes, with the page automatically refreshed every 10 minutes)

About weather observations | Map of weather stations | Latest weather observations for SA | Other Formats
Station Details ID: 022823 Name: CAPE BORDA Lat: -35.75 Lon: 136.60 Height: 158.0 m
Data from the previous 72 hours. | See also: Recent months at Cape Borda
Date/Time
CST
Temp
°C
App
Temp
°C
Dew
Point
Rel
Hum
%
Delta-T
°C
Wind Press
QNH
hPa
Press
MSL
hPa
Rain
since 9 am
mm
Dir
 
Spd
km/h
Gust
km/h
Spd
kts
Gust
kts
21/08:00pm 16.3 12.8 15.4 94 0.5 S 28 35 15 19 1009.9 - 0.2
21/07:59pm 16.4 12.9 15.4 94 0.6 S 28 35 15 19 1010.0 - 0.2
21/07:30pm 16.4 14.1 15.7 96 0.4 SW 22 30 12 16 1012.1 - 0.2
21/07:00pm 16.6 15.0 15.9 96 0.4 S 19 26 10 14 1010.7 - 0.2
21/06:30pm 16.8 15.5 15.8 94 0.6 SSE 17 26 9 14 1010.8 - 0.0
21/06:00pm 17.2 14.6 16.0 93 0.7 - 24 33 13 18 1010.8 1010.6 0.0
21/05:30pm 17.7 16.1 16.5 93 0.7 WSW 20 26 11 14 1010.4 - 0.0
21/05:00pm 18.3 16.7 16.5 89 1.1 W 20 24 11 13 1010.3 - 0.0
21/04:30pm 18.4 16.8 15.9 85 1.5 WSW 19 28 10 15 1010.1 - 0.0
21/04:00pm 18.5 18.1 15.1 80 2.0 W 11 17 6 9 1009.5 - 0.0
21/03:30pm 18.6 18.5 14.9 79 2.2 N 9 17 5 9 1008.8 - 0.0
21/03:00pm 18.8 18.3 14.9 78 2.3 NW 11 15 6 8 1009.6 1009.4 0.0
21/02:30pm 19.1 17.4 14.7 75 2.6 NW 17 24 9 13 1009.4 - 0.0
21/02:00pm 19.1 17.7 14.5 74 2.7 NNW 15 22 8 12 1009.6 - 0.0
21/01:30pm 19.4 16.8 13.7 69 3.3 NW 20 32 11 17 1009.6 - 0.0
21/01:00pm 19.4 16.2 13.1 67 3.6 NW 22 32 12 17 1010.1 - -
21/12:30pm 20.3 16.2 11.5 57 4.9 NNW 24 33 13 18 1010.6 - 0.0
21/12:00pm 20.3 17.2 11.5 57 4.9 N 19 28 10 15 1010.7 1010.5 0.0
21/11:30am 20.4 17.6 11.4 56 5.0 N 17 28 9 15 1010.6 - 0.0
21/11:00am 20.3 17.2 11.7 57 4.8 N 19 28 10 15 1010.6 - 0.0
21/10:30am 20.5 17.3 11.8 57 4.9 N 20 24 11 13 1010.9 - -
21/10:00am 20.3 18.1 13.4 64 4.0 N 17 20 9 11 1010.9 - 0.0
21/09:30am 20.0 18.2 13.4 65 3.8 N 15 26 8 14 1011.6 - -
21/09:00am 19.6 16.6 12.5 63 4.0 NNE 20 39 11 21 1011.4 1011.3 0.0
21/08:30am 19.3 15.7 13.0 67 3.6 NNE 24 35 13 19 1010.9 - 0.0
21/08:00am 19.1 15.2 13.3 69 3.3 NNE 26 39 14 21 1010.6 - -
21/07:30am 18.5 14.9 14.2 76 2.5 NE 26 35 14 19 1010.4 - 0.0
21/07:00am 18.1 14.4 13.9 76 2.4 NE 26 39 14 21 1010.3 - -
21/06:30am 17.8 13.6 13.4 75 2.5 NE 28 41 15 22 1010.3 - 0.0
21/06:00am 18.0 13.7 13.1 73 2.8 NE 28 39 15 21 1010.6 1010.4 0.0
21/05:30am 17.8 13.4 12.8 72 2.8 NE 28 37 15 20 1010.8 - 0.0
21/05:00am 17.8 12.8 12.2 70 3.1 NE 30 41 16 22 1010.7 - 0.0
21/04:30am 17.3 12.4 12.5 73 2.7 NE 30 39 16 21 1010.9 - 0.0
21/04:00am 18.1 12.5 11.4 65 3.7 NE 32 46 17 25 1011.0 - 0.0
21/03:30am 17.3 12.3 14.0 81 1.9 ENE 33 46 18 25 1011.2 - 0.0
21/03:00am 16.7 12.0 14.4 86 1.3 ENE 32 43 17 23 1011.5 1011.4 0.0
21/02:30am 16.6 11.7 14.2 86 1.4 ENE 33 44 18 24 1011.8 - 0.0
21/02:00am 16.4 11.4 13.9 85 1.4 ENE 33 44 18 24 1012.2 - 0.0
21/01:30am 16.3 11.2 13.8 85 1.4 ENE 33 50 18 27 1012.5 - 0.0
21/01:26am 16.2 11.4 13.9 86 1.3 ENE 32 50 17 27 1012.6 - 0.0
21/01:00am 15.9 11.1 14.5 91 0.8 ENE 33 44 18 24 1013.0 - 0.0
21/12:30am 15.9 11.1 14.0 88 1.1 ENE 32 41 17 22 1013.5 - 0.0
21/12:00am 16.0 11.2 13.0 82 1.7 ENE 30 43 16 23 1013.9 1013.8 0.0
 
Date/Time
CST
Temp
°C
App
Temp
°C
Dew
Point
Rel
Hum
%
Delta-T
°C
Wind Press
QNH
hPa
Press
MSL
hPa
Rain
since 9 am
mm
Dir
 
Spd
km/h
Gust
km/h
Spd
kts
Gust
kts
20/11:30pm 16.0 11.4 12.2 78 2.1 ENE 28 37 15 20 1014.4 - 0.0
20/11:00pm 15.7 12.0 12.8 83 1.6 ENE 24 32 13 17 1015.0 - 0.0
20/10:30pm 15.7 12.0 12.8 83 1.6 ENE 24 33 13 18 1015.4 - 0.0
20/10:00pm 15.4 11.8 13.1 86 1.3 ENE 24 32 13 17 1015.2 - 0.0
20/09:30pm 15.0 12.4 13.9 93 0.6 ENE 20 26 11 14 1016.0 - 0.0
20/09:00pm 15.1 12.6 14.0 93 0.6 E 20 30 11 16 1015.7 1015.5 0.0
20/08:30pm 15.0 13.8 13.9 93 0.6 E 13 17 7 9 1016.5 - -
20/08:00pm 15.2 13.9 13.8 91 0.8 E 13 15 7 8 1016.8 - 0.0
20/07:30pm 15.2 14.3 13.6 90 0.9 E 11 13 6 7 1017.1 - 0.0
20/07:00pm 15.5 15.2 13.2 86 1.3 W 7 9 4 5 1017.2 - 0.0
20/06:30pm 15.6 16.4 12.7 83 1.6 CALM 0 0 0 0 1017.2 - 0.0
20/06:00pm 16.2 16.1 13.4 83 1.6 W 6 7 3 4 1017.0 1016.9 0.0
20/05:30pm 16.7 17.0 13.3 80 1.9 W 4 7 2 4 1016.8 - 0.0
20/05:00pm 16.9 16.3 13.4 80 2.0 W 9 11 5 6 1016.8 - 0.0
20/04:30pm 17.6 16.9 13.2 75 2.5 W 9 11 5 6 1016.7 - 0.0
20/04:00pm 17.5 16.5 13.4 77 2.3 W 11 15 6 8 1017.0 - 0.0
20/03:30pm 18.8 17.8 13.4 71 3.1 WSW 11 15 6 8 1016.8 - 0.0
20/03:00pm 18.1 16.8 13.7 75 2.5 W 13 17 7 9 1016.9 1016.8 0.0
20/02:30pm 17.6 15.5 13.7 78 2.2 W 17 20 9 11 1017.2 - 0.0
20/02:00pm 17.8 16.2 13.8 77 2.3 WNW 15 20 8 11 1017.1 - 0.0
20/01:30pm 17.9 16.2 13.7 76 2.4 WNW 15 24 8 13 1017.2 - 0.0
20/01:00pm 17.2 15.0 13.3 78 2.2 WNW 17 20 9 11 1017.4 - 0.0
20/12:30pm 17.5 14.8 13.4 77 2.3 W 20 28 11 15 1017.8 - 0.0
20/12:00pm 18.4 15.4 12.7 69 3.2 WNW 20 26 11 14 1018.1 1018.0 0.0
20/11:30am 18.1 15.2 12.4 69 3.2 WNW 19 24 10 13 1018.3 - -
20/11:00am 17.6 14.7 12.4 71 2.9 NW 19 26 10 14 1018.4 - 0.0
20/10:30am 17.1 14.1 11.8 71 2.9 NW 19 24 10 13 1018.5 - 0.0
20/10:00am 17.3 14.6 11.8 70 3.0 NW 17 24 9 13 1018.2 - 0.0
20/09:30am 16.8 14.1 11.7 72 2.8 NW 17 24 9 13 1018.4 - 0.0
20/09:00am 16.3 13.5 11.5 73 2.6 NW 17 22 9 12 1018.4 1018.3 0.0
20/08:30am 16.7 14.3 11.4 71 2.9 NW 15 20 8 11 1018.4 - 0.0
20/08:00am 16.1 13.3 11.5 74 2.5 WNW 17 24 9 13 1018.2 - 0.0
20/07:30am 15.4 12.8 11.9 79 1.9 NW 17 24 9 13 1017.7 - 0.0
20/07:00am 15.4 12.1 10.9 74 2.4 NW 19 24 10 13 1017.6 - 0.0
20/06:30am 15.2 12.2 10.7 74 2.4 NW 17 20 9 11 1017.2 - 0.0
20/06:00am 15.2 11.8 10.5 73 2.5 - 19 24 10 13 1017.1 1017.0 0.0
20/05:30am 15.2 11.8 10.7 74 2.4 NW 19 24 10 13 1017.0 - 0.0
20/05:00am 15.2 11.8 11.3 77 2.1 NNW 20 28 11 15 1016.6 - 0.0
20/04:30am 15.1 11.7 11.2 77 2.1 NW 20 28 11 15 1016.5 - 0.0
20/04:00am 15.0 11.8 10.0 72 2.6 NW 17 22 9 12 1016.4 - 0.0
20/03:30am 14.6 11.4 10.0 74 2.4 NW 17 22 9 12 1016.6 - 0.0
20/03:00am 14.7 12.0 10.3 75 2.3 NW 15 20 8 11 1016.4 1016.3 0.0
20/02:30am 15.2 12.0 9.9 70 2.8 NW 17 22 9 12 1016.8 - -
20/02:00am 14.6 11.6 10.8 78 2.0 NNW 17 20 9 11 1016.9 - 0.0
20/01:30am 14.7 12.0 10.5 76 2.2 NNW 15 20 8 11 1017.2 - 0.0
20/01:00am 14.7 12.0 10.3 75 2.3 NNW 15 20 8 11 1017.2 - -
20/12:30am 15.0 11.5 8.7 66 3.2 N 17 22 9 12 1017.4 - 0.0
20/12:00am 14.7 11.5 8.4 66 3.2 N 15 20 8 11 1017.4 1017.3 0.0
 
Date/Time
CST
Temp
°C
App
Temp
°C
Dew
Point
Rel
Hum
%
Delta-T
°C
Wind Press
QNH
hPa
Press
MSL
hPa
Rain
since 9 am
mm
Dir
 
Spd
km/h
Gust
km/h
Spd
kts
Gust
kts
19/11:30pm 14.3 11.0 7.9 65 3.2 N 15 20 8 11 1017.5 - -
19/11:00pm 14.8 11.5 8.0 64 3.4 N 15 20 8 11 1017.6 - -
19/10:30pm 14.7 11.9 7.0 60 3.8 N 11 13 6 7 1018.0 - 0.0
19/10:00pm 14.5 12.5 7.2 61 3.6 N 7 11 4 6 1018.2 - 0.0
19/09:30pm 14.6 12.3 7.3 61 3.6 N 9 13 5 7 1018.2 - -
19/09:00pm 14.4 12.4 7.1 61 3.6 N 7 9 4 5 1018.3 1018.2 0.0
19/08:30pm 14.4 12.3 6.8 60 3.7 N 7 9 4 5 1018.3 - 0.0
19/08:00pm 14.5 12.0 6.5 58 3.9 N 9 13 5 7 1018.1 - 0.0
19/07:30pm 14.5 12.0 6.7 59 3.8 N 9 13 5 7 1018.3 - 0.0
19/07:00pm 14.4 12.3 6.6 59 3.8 N 7 11 4 6 1018.2 - 0.0
19/06:30pm 14.4 12.3 6.6 59 3.8 N 7 9 4 5 1018.0 - 0.0
19/06:00pm 14.6 12.1 6.6 58 3.9 N 9 11 5 6 1018.0 1017.9 0.0
19/05:30pm 14.9 12.3 6.2 56 4.2 N 9 11 5 6 1018.2 - 0.0
19/05:00pm 15.2 12.3 6.4 55 4.3 NNW 11 15 6 8 1018.2 - 0.0
19/04:30pm 15.7 12.8 6.3 53 4.6 N 11 17 6 9 1018.3 - 0.0
19/04:00pm 15.8 12.7 5.6 50 4.9 NW 11 15 6 8 1018.7 - 0.0
19/03:30pm 16.3 13.1 5.3 48 5.3 NNW 11 17 6 9 1018.8 - 0.0
19/03:00pm 17.3 13.8 5.3 45 5.8 NNW 13 19 7 10 1018.9 1018.8 0.0
19/02:30pm 16.8 12.8 4.9 45 5.7 NNW 15 20 8 11 1019.2 - 0.0
19/02:00pm 16.4 12.6 3.7 42 5.9 N 13 17 7 9 1019.3 - 0.0
19/01:30pm 16.3 13.3 4.1 44 5.7 NNW 9 13 5 7 1019.5 - -
19/01:00pm 15.9 12.5 4.1 45 5.5 N 11 15 6 8 1020.1 - 0.0
19/12:30pm 15.6 12.7 4.5 47 5.2 N 9 17 5 9 1020.9 - 0.0
19/12:00pm 15.8 12.3 5.6 50 4.9 NNE 13 17 7 9 1021.2 1021.0 0.0
19/11:30am 15.8 12.3 5.6 50 4.9 NE 13 19 7 10 1021.6 - -
19/11:00am 15.3 11.4 5.2 51 4.8 NE 15 20 8 11 1021.9 - 0.0
19/10:30am 15.4 11.8 5.1 50 4.9 NE 13 19 7 10 1022.2 - 0.0
19/10:00am 15.5 11.6 5.2 50 4.9 NE 15 24 8 13 1022.4 - 0.0
19/09:30am 15.0 11.3 4.5 49 4.9 ENE 13 20 7 11 1022.6 - 0.0
19/09:00am 14.6 10.9 4.5 50 4.7 ENE 13 19 7 10 1022.6 1022.5 0.0
19/08:30am 13.6 10.7 4.8 55 4.1 E 9 13 5 7 1022.6 - 0.0
19/08:00am 12.7 9.9 5.2 60 3.5 ESE 9 11 5 6 1022.6 - 0.0
19/07:30am 12.6 9.3 4.3 57 3.8 E 11 11 6 6 1022.4 - -
19/07:00am 12.3 8.5 4.1 57 3.7 E 13 13 7 7 1022.3 - 0.0
19/06:30am 12.5 9.5 3.9 56 3.9 E 9 11 5 6 1022.2 - 0.0
19/06:00am 12.6 9.1 3.4 53 4.1 - 11 13 6 7 1022.1 1022.0 0.0
19/05:30am 12.0 8.7 4.6 60 3.4 ESE 11 13 6 7 1022.1 - -
19/05:00am 12.3 9.0 4.4 58 3.6 E 11 13 6 7 1022.2 - 0.0
19/04:30am 12.2 8.5 4.5 59 3.5 E 13 15 7 8 1022.1 - 0.0
19/04:00am 11.7 8.4 6.2 69 2.6 ESE 13 13 7 7 1022.1 - 0.0
19/03:30am 11.9 8.9 6.2 68 2.7 ESE 11 13 6 7 1022.1 - 0.0
19/03:00am 11.8 9.0 6.8 71 2.4 ESE 11 13 6 7 1022.3 1022.2 0.0
19/02:30am 12.0 9.2 6.8 70 2.5 ESE 11 13 6 7 1022.4 - 0.0
19/02:00am 12.2 9.4 7.0 70 2.5 ESE 11 13 6 7 1022.6 - 0.0
19/01:30am 12.3 9.5 7.1 70 2.5 ESE 11 13 6 7 1022.8 - 0.0
19/01:00am 12.2 9.9 7.5 73 2.3 ESE 9 11 5 6 1023.0 - 0.0
19/12:30am 12.3 9.7 7.6 73 2.3 SE 11 11 6 6 1023.1 - 0.0
19/12:00am 12.9 10.6 7.6 70 2.6 SSE 9 11 5 6 1023.3 1023.2 0.0
 
Date/Time
CST
Temp
°C
App
Temp
°C
Dew
Point
Rel
Hum
%
Delta-T
°C
Wind Press
QNH
hPa
Press
MSL
hPa
Rain
since 9 am
mm
Dir
 
Spd
km/h
Gust
km/h
Spd
kts
Gust
kts
18/11:30pm 12.4 8.9 7.2 70 2.5 SSE 15 19 8 10 1023.4 - 0.0
18/11:00pm 11.5 8.8 7.4 76 2.0 SSE 11 11 6 6 1023.6 - 0.0
18/10:30pm 12.2 9.9 7.5 73 2.3 SSE 9 11 5 6 1023.8 - 0.0
18/10:00pm 12.3 9.5 7.1 70 2.5 SSE 11 13 6 7 1024.0 - 0.0
18/09:30pm 12.2 9.3 6.3 67 2.8 SSE 11 13 6 7 1024.0 - 0.0
18/09:00pm 12.1 9.0 5.7 65 3.0 SSE 11 13 6 7 1024.0 1023.9 0.0
18/08:30pm 11.2 8.4 5.3 67 2.7 S 9 11 5 6 1024.0 - 0.0

Other Formats:

Comma delimited format used in spreadsheet applications
http://www.bom.gov.au/fwo/IDS60801/IDS60801.95805.axf

JavaScript Object Notation format (JSON) in row-major order
http://www.bom.gov.au/fwo/IDS60801/IDS60801.95805.json